Time;durP1;ratioP1;P1;durP2;ratioP2;P2;SDS_P1;SDS_P2;PMS_P1;PMS_P2;Temp;Humidity;BMP_temperature;BMP_pressure;BME280_temperature;BME280_humidity;BME280_pressure;Samples;Min_cycle;Max_cycle;Signal;HPM_P1;HPM_P2
2023/03/20 00:01:15;;;;;;;37.45;13.55;;;;;;;9.64;100.00;101460.16;6267510;28;20037;-72
2023/03/20 00:04:17;;;;;;;35.63;13.57;;;;;;;9.58;100.00;101455.09;6266775;28;20045;-70
2023/03/20 00:07:18;;;;;;;35.28;13.10;;;;;;;9.59;100.00;101456.84;6277103;28;20335;-69
2023/03/20 00:10:21;;;;;;;43.35;14.18;;;;;;;9.49;100.00;101456.31;6279197;28;20045;-70
2023/03/20 00:13:26;;;;;;;38.60;13.07;;;;;;;9.60;100.00;101466.41;6279661;28;20048;-70
2023/03/20 00:16:33;;;;;;;31.90;13.10;;;;;;;9.62;100.00;101464.56;6278927;28;20080;-70
2023/03/20 00:19:34;;;;;;;35.92;13.02;;;;;;;9.59;100.00;101469.97;6279323;28;20055;-70
2023/03/20 00:22:35;;;;;;;36.58;12.30;;;;;;;9.66;100.00;101469.66;6278949;28;20076;-70
2023/03/20 00:25:38;;;;;;;32.72;12.55;;;;;;;9.66;100.00;101471.41;6278352;28;20045;-71
2023/03/20 00:28:42;;;;;;;31.42;12.77;;;;;;;9.73;100.00;101458.94;6278985;28;20053;-70
2023/03/20 00:31:45;;;;;;;36.45;11.82;;;;;;;9.73;100.00;101462.41;6277380;28;20053;-69
2023/03/20 00:34:46;;;;;;;31.88;11.13;;;;;;;9.82;100.00;101462.06;6278776;28;20049;-70
2023/03/20 00:37:47;;;;;;;35.70;11.45;;;;;;;9.74;100.00;101460.66;6277919;28;20349;-70
2023/03/20 00:40:49;;;;;;;28.77;10.52;;;;;;;9.66;100.00;101461.78;6278424;28;20053;-70
2023/03/20 00:43:55;;;;;;;30.05;10.65;;;;;;;9.61;100.00;101466.34;6278678;28;20049;-72
2023/03/20 00:46:59;;;;;;;31.52;10.10;;;;;;;9.69;100.00;101467.84;6278347;28;20387;-70
2023/03/20 00:50:01;;;;;;;23.20;9.25;;;;;;;9.71;100.00;101468.63;6278123;28;20118;-70
2023/03/20 00:53:03;;;;;;;25.15;10.02;;;;;;;9.69;100.00;101466.06;6278839;28;20059;-70
2023/03/20 00:56:05;;;;;;;26.27;8.90;;;;;;;9.68;100.00;101461.75;6276439;28;20060;-70
2023/03/20 00:59:14;;;;;;;31.73;9.70;;;;;;;9.62;100.00;101452.31;6277666;28;20049;-70
2023/03/20 01:02:17;;;;;;;22.17;8.07;;;;;;;9.65;100.00;101452.19;6278385;28;20049;-70
2023/03/20 01:05:18;;;;;;;25.30;9.52;;;;;;;9.63;100.00;101453.19;6276596;28;20056;-70
2023/03/20 01:08:22;;;;;;;24.33;7.85;;;;;;;9.59;100.00;101451.59;6277686;28;20055;-70
2023/03/20 01:11:24;;;;;;;25.80;7.72;;;;;;;9.61;100.00;101457.63;6278234;28;20053;-70
2023/03/20 01:14:25;;;;;;;22.67;7.88;;;;;;;9.57;100.00;101462.13;6278120;28;20048;-70
2023/03/20 01:17:28;;;;;;;24.77;8.98;;;;;;;9.45;100.00;101461.72;6277702;28;20049;-70
2023/03/20 01:20:31;;;;;;;29.25;8.80;;;;;;;9.38;100.00;101461.97;6277806;28;20267;-70
2023/03/20 01:23:32;;;;;;;28.15;8.52;;;;;;;9.46;100.00;101466.09;6277960;28;20349;-70
2023/03/20 01:26:36;;;;;;;22.35;8.52;;;;;;;9.36;100.00;101460.31;6275989;28;20048;-70
2023/03/20 01:29:38;;;;;;;26.80;9.00;;;;;;;9.32;100.00;101456.94;6277776;28;20353;-70
2023/03/20 01:32:42;;;;;;;27.77;9.13;;;;;;;9.35;100.00;101459.44;6277731;28;20353;-70
2023/03/20 01:35:45;;;;;;;24.25;9.65;;;;;;;9.31;100.00;101468.38;6277468;28;20183;-70
2023/03/20 01:38:51;;;;;;;24.70;8.55;;;;;;;9.28;100.00;101465.00;6277588;28;20049;-71
2023/03/20 01:41:53;;;;;;;23.40;8.77;;;;;;;9.35;100.00;101467.31;6277170;28;20053;-70
2023/03/20 01:44:54;;;;;;;19.55;7.55;;;;;;;9.36;100.00;101473.44;6277337;28;20429;-70
2023/03/20 01:47:58;;;;;;;24.63;8.25;;;;;;;9.34;100.00;101478.72;6266159;28;20044;-70
2023/03/20 01:50:59;;;;;;;24.02;8.77;;;;;;;9.29;100.00;101485.06;6258811;28;20127;-79
2023/03/20 01:54:05;;;;;;;26.85;8.93;;;;;;;9.26;100.00;101493.03;6260341;28;20049;-79
2023/03/20 01:57:12;;;;;;;25.15;9.60;;;;;;;9.22;100.00;101497.53;6266602;28;20128;-78
2023/03/20 02:00:16;;;;;;;29.98;10.60;;;;;;;9.30;100.00;101497.25;6257740;28;20056;-79
2023/03/20 02:03:20;;;;;;;19.17;8.05;;;;;;;9.26;100.00;101503.50;6268429;28;20053;-79
2023/03/20 02:06:23;;;;;;;32.05;9.32;;;;;;;9.26;100.00;101500.88;6276566;28;20052;-79
2023/03/20 02:09:24;;;;;;;22.23;8.73;;;;;;;9.25;100.00;101499.19;6276360;28;20064;-79
2023/03/20 02:12:26;;;;;;;24.73;8.75;;;;;;;9.30;100.00;101503.34;6276820;28;20055;-78
2023/03/20 02:15:29;;;;;;;26.42;8.20;;;;;;;9.27;100.00;101500.84;6276406;28;20049;-79
2023/03/20 02:18:33;;;;;;;24.23;7.65;;;;;;;9.28;100.00;101504.34;6276263;28;20448;-79
2023/03/20 02:22:16;;;;;;;22.73;6.95;;;;;;;9.24;100.00;101498.34;6276367;28;20053;-78
2023/03/20 02:25:50;;;;;;;22.83;7.03;;;;;;;9.19;100.00;101494.16;6275558;28;20456;-78
2023/03/20 02:29:38;;;;;;;18.58;6.70;;;;;;;9.14;100.00;101489.09;6267512;28;20442;-78
2023/03/20 02:33:24;;;;;;;13.80;5.05;;;;;;;9.18;100.00;101479.34;6276479;28;20052;-79
2023/03/20 02:37:04;;;;;;;13.35;6.00;;;;;;;9.15;100.00;101475.06;6275913;28;20058;-78
2023/03/20 02:40:11;;;;;;;;;;;;;;;9.08;100.00;101471.81;6276676;28;20064;-80
2023/03/20 02:43:20;;;;;;;13.43;5.35;;;;;;;9.04;100.00;101474.59;6276064;28;19921;-81
2023/03/20 02:46:26;;;;;;;;;;;;;;;9.03;100.00;101459.75;6276074;28;20060;-78
2023/03/20 02:49:46;;;;;;;13.02;4.97;;;;;;;9.01;100.00;101466.84;6276226;28;19924;-78
2023/03/20 02:53:07;;;;;;;9.60;4.25;;;;;;;8.95;100.00;101462.66;6276055;28;20049;-81
2023/03/20 02:56:17;;;;;;;12.73;4.78;;;;;;;8.95;100.00;101465.28;6266237;28;20048;-80
2023/03/20 02:59:29;;;;;;;7.40;3.10;;;;;;;8.96;100.00;101460.91;6250822;28;20502;-80
2023/03/20 03:02:36;;;;;;;8.45;3.55;;;;;;;8.94;100.00;101455.69;6250328;28;20393;-81
2023/03/20 03:05:42;;;;;;;10.10;3.72;;;;;;;8.92;100.00;101467.16;6250625;28;20045;-80
2023/03/20 03:08:48;;;;;;;9.35;4.10;;;;;;;8.92;100.00;101467.16;6250395;28;20053;-80
2023/03/20 03:11:54;;;;;;;10.75;4.10;;;;;;;8.92;100.00;101464.53;6250643;28;20053;-81
2023/03/20 03:14:59;;;;;;;6.82;3.35;;;;;;;8.84;100.00;101468.25;6250750;28;20442;-80
2023/03/20 03:18:03;;;;;;;9.70;3.40;;;;;;;8.78;100.00;101465.88;6250124;28;20346;-80
2023/03/20 03:21:07;;;;;;;9.73;3.55;;;;;;;8.73;100.00;101472.19;6250952;28;20484;-78
2023/03/20 03:24:28;;;;;;;8.82;3.08;;;;;;;8.67;100.00;101467.13;6257607;28;20131;-78
2023/03/20 03:27:36;;;;;;;8.15;4.05;;;;;;;8.58;100.00;101468.28;6252611;28;20049;-81
2023/03/20 03:30:39;;;;;;;7.10;3.07;;;;;;;8.57;100.00;101464.81;6255508;28;20053;-81
2023/03/20 03:33:44;;;;;;;9.55;3.90;;;;;;;8.54;100.00;101466.66;6265862;28;20048;-81
2023/03/20 03:36:50;;;;;;;9.95;4.43;;;;;;;8.47;100.00;101467.81;6265641;28;20441;-80
2023/03/20 03:39:56;;;;;;;9.98;3.85;;;;;;;8.49;100.00;101464.22;6261095;28;20149;-78
2023/03/20 03:43:06;;;;;;;12.73;3.63;;;;;;;8.48;100.00;101459.88;6253707;28;20048;-78
2023/03/20 03:46:13;;;;;;;13.98;5.53;;;;;;;8.48;100.00;101453.78;6263162;28;20056;-81
2023/03/20 03:49:19;;;;;;;13.50;4.18;;;;;;;8.50;100.00;101452.84;6260719;28;20048;-78
2023/03/20 03:52:23;;;;;;;12.77;5.53;;;;;;;8.37;100.00;101448.91;6265111;28;20052;-78
2023/03/20 03:55:27;;;;;;;14.27;4.80;;;;;;;8.34;100.00;101449.81;6264832;28;20041;-79
2023/03/20 03:58:35;;;;;;;10.18;4.63;;;;;;;8.28;100.00;101449.19;6250404;28;20045;-79
2023/03/20 04:01:42;;;;;;;11.00;4.80;;;;;;;8.25;100.00;101447.50;6250543;28;20045;-80
2023/03/20 04:04:47;;;;;;;16.58;5.85;;;;;;;8.23;100.00;101438.84;6264733;28;20189;-80
2023/03/20 04:07:54;;;;;;;14.23;4.90;;;;;;;8.24;100.00;101442.34;6260036;28;20049;-80
2023/03/20 04:10:56;;;;;;;22.75;6.60;;;;;;;8.20;100.00;101443.34;6263287;28;20065;-78
2023/03/20 04:13:58;;;;;;;13.90;5.55;;;;;;;8.16;100.00;101434.72;6264240;28;20049;-81
2023/03/20 04:17:00;;;;;;;16.52;6.25;;;;;;;8.21;100.00;101434.56;6266889;28;20445;-81
2023/03/20 04:20:01;;;;;;;17.70;6.05;;;;;;;8.19;100.00;101436.41;6266524;28;20056;-80
2023/03/20 04:23:04;;;;;;;24.80;7.43;;;;;;;8.18;100.00;101434.69;6257630;28;20037;-80
2023/03/20 04:26:06;;;;;;;19.20;6.60;;;;;;;8.19;100.00;101433.78;6246482;28;20049;-80
2023/03/20 04:29:09;;;;;;;20.70;8.07;;;;;;;8.19;100.00;101434.63;6245071;28;20040;-81
2023/03/20 04:32:10;;;;;;;26.42;7.43;;;;;;;8.19;100.00;101439.00;6249087;28;20563;-80
2023/03/20 04:35:12;;;;;;;21.98;8.45;;;;;;;8.19;100.00;101447.72;6246414;28;20095;-80
2023/03/20 04:38:13;;;;;;;19.75;7.47;;;;;;;8.21;100.00;101447.66;6240349;28;20040;-80
2023/03/20 04:41:15;;;;;;;27.60;9.10;;;;;;;8.21;100.00;101443.28;6244390;28;20041;-78
2023/03/20 04:44:18;;;;;;;25.92;9.07;;;;;;;8.19;100.00;101439.88;6248253;28;20239;-77
2023/03/20 04:47:19;;;;;;;31.17;10.38;;;;;;;8.22;100.00;101445.00;6242755;28;20048;-81
2023/03/20 04:50:21;;;;;;;24.65;8.73;;;;;;;8.17;100.00;101441.66;6232794;28;20045;-80
2023/03/20 04:53:22;;;;;;;31.73;9.77;;;;;;;8.18;100.00;101453.00;6240925;28;20048;-81
2023/03/20 04:56:23;;;;;;;30.33;9.52;;;;;;;8.19;100.00;101454.72;6237845;28;20048;-78
2023/03/20 04:59:26;;;;;;;31.52;9.45;;;;;;;8.08;100.00;101457.66;6233429;28;20496;-80
2023/03/20 05:02:27;;;;;;;34.05;10.77;;;;;;;8.02;100.00;101456.09;6240890;28;20088;-80
2023/03/20 05:05:29;;;;;;;37.50;11.50;;;;;;;8.02;100.00;101450.00;6240289;28;20049;-78
2023/03/20 05:08:31;;;;;;;34.08;9.68;;;;;;;8.12;100.00;101452.28;6232450;28;20120;-78
2023/03/20 05:11:32;;;;;;;37.97;11.30;;;;;;;8.19;100.00;101439.00;6241210;28;20056;-77
2023/03/20 05:14:35;;;;;;;33.00;10.88;;;;;;;8.12;100.00;101438.34;6241331;28;20056;-78
2023/03/20 05:17:36;;;;;;;29.25;10.00;;;;;;;8.16;100.00;101436.47;6232460;28;20049;-81
2023/03/20 05:20:38;;;;;;;29.65;9.77;;;;;;;8.17;100.00;101443.41;6248946;28;20045;-78
2023/03/20 05:23:39;;;;;;;33.10;10.90;;;;;;;8.21;100.00;101438.03;6256608;28;20045;-78
2023/03/20 05:26:40;;;;;;;62.08;10.75;;;;;;;8.19;100.00;101436.41;6264412;28;20049;-78
2023/03/20 05:29:43;;;;;;;27.17;9.63;;;;;;;8.20;100.00;101431.09;6260727;28;20050;-78
2023/03/20 05:32:45;;;;;;;28.60;9.45;;;;;;;8.23;100.00;101433.63;6267576;28;20045;-80
2023/03/20 05:35:46;;;;;;;28.98;9.45;;;;;;;8.30;100.00;101436.88;6262001;28;20057;-80
2023/03/20 05:38:47;;;;;;;35.05;10.13;;;;;;;8.22;100.00;101442.38;6266827;28;20353;-81
2023/03/20 05:41:49;;;;;;;30.52;9.90;;;;;;;8.28;100.00;101434.31;6264590;28;20056;-80
2023/03/20 05:44:51;;;;;;;27.30;11.07;;;;;;;8.13;100.00;101446.16;6264884;28;20052;-80
2023/03/20 05:47:53;;;;;;;37.95;9.90;;;;;;;8.18;100.00;101442.53;6261055;28;20067;-78
2023/03/20 05:50:54;;;;;;;36.15;11.80;;;;;;;8.15;100.00;101448.72;6263043;28;20050;-78
2023/03/20 05:53:55;;;;;;;37.58;11.70;;;;;;;8.12;100.00;101459.28;6263073;28;20122;-78
2023/03/20 05:56:57;;;;;;;35.42;11.38;;;;;;;8.22;100.00;101446.75;6259603;28;20054;-78
2023/03/20 06:00:00;;;;;;;31.30;10.65;;;;;;;8.24;100.00;101451.03;6259260;28;20056;-78
2023/03/20 06:03:01;;;;;;;34.40;11.90;;;;;;;8.18;100.00;101451.25;6264735;28;20045;-78
2023/03/20 06:06:02;;;;;;;36.25;12.15;;;;;;;8.25;100.00;101457.13;6263948;28;20046;-80
2023/03/20 06:09:04;;;;;;;44.05;12.25;;;;;;;8.32;100.00;101456.88;6259742;28;20046;-78
2023/03/20 06:12:06;;;;;;;41.38;12.52;;;;;;;8.31;100.00;101467.41;6264597;28;20045;-77
2023/03/20 06:15:09;;;;;;;47.25;13.50;;;;;;;8.35;100.00;101466.38;6254864;28;20076;-80
2023/03/20 06:18:11;;;;;;;43.25;12.88;;;;;;;8.36;100.00;101474.25;6265222;28;20425;-80
2023/03/20 06:21:12;;;;;;;39.25;13.35;;;;;;;8.36;100.00;101473.38;6262529;28;20076;-80
2023/03/20 06:24:14;;;;;;;43.33;13.95;;;;;;;8.41;100.00;101481.09;6264444;28;20128;-80
2023/03/20 06:27:15;;;;;;;39.72;13.32;;;;;;;8.45;100.00;101485.31;6261547;28;20073;-80
2023/03/20 06:30:18;;;;;;;39.80;13.75;;;;;;;8.49;100.00;101487.78;6265485;28;20330;-80
2023/03/20 06:33:20;;;;;;;38.42;13.60;;;;;;;8.48;100.00;101483.47;6261441;28;20049;-78
2023/03/20 06:36:22;;;;;;;44.28;12.70;;;;;;;8.44;100.00;101476.59;6263957;28;20060;-80
2023/03/20 06:39:23;;;;;;;39.63;13.48;;;;;;;8.43;100.00;101474.91;6263745;28;20041;-79
2023/03/20 06:42:25;;;;;;;41.03;13.00;;;;;;;8.39;100.00;101471.50;6259283;28;20069;-78
2023/03/20 06:45:27;;;;;;;34.92;11.27;;;;;;;8.45;100.00;101473.09;6260147;28;20128;-78
2023/03/20 06:48:29;;;;;;;43.03;13.48;;;;;;;8.48;100.00;101477.38;6266657;28;20041;-78
2023/03/20 06:51:30;;;;;;;36.00;12.00;;;;;;;8.51;100.00;101483.38;6259386;28;20052;-80
2023/03/20 06:54:31;;;;;;;33.42;10.82;;;;;;;8.56;100.00;101485.84;6263777;28;20334;-78
2023/03/20 06:57:33;;;;;;;37.67;11.52;;;;;;;8.51;100.00;101491.22;6258791;28;20056;-79
2023/03/20 07:00:36;;;;;;;34.85;11.13;;;;;;;8.56;100.00;101486.69;6258738;28;20556;-80
2023/03/20 07:03:37;;;;;;;26.58;10.60;;;;;;;8.48;100.00;101479.97;6259658;28;20049;-78
2023/03/20 07:06:39;;;;;;;37.38;11.68;;;;;;;8.56;100.00;101484.06;6265999;28;20376;-78
2023/03/20 07:09:41;;;;;;;29.30;10.05;;;;;;;8.53;100.00;101496.41;6259321;28;20366;-78
2023/03/20 07:12:42;;;;;;;26.30;10.32;;;;;;;8.59;100.00;101502.31;6266014;28;20057;-78
2023/03/20 07:15:45;;;;;;;31.63;10.98;;;;;;;8.63;100.00;101503.94;6259933;28;20045;-79
2023/03/20 07:18:46;;;;;;;27.23;9.70;;;;;;;8.71;100.00;101501.03;6264811;28;20053;-79
2023/03/20 07:21:48;;;;;;;26.10;10.50;;;;;;;8.70;100.00;101507.19;6259909;28;20045;-79
2023/03/20 07:24:50;;;;;;;37.85;9.55;;;;;;;8.75;100.00;101512.28;6262387;28;20503;-78
2023/03/20 07:27:51;;;;;;;24.52;9.57;;;;;;;8.78;100.00;101505.19;6263842;28;20567;-78
2023/03/20 07:30:54;;;;;;;25.70;10.23;;;;;;;8.74;100.00;101510.56;6264648;28;20080;-79
2023/03/20 07:33:56;;;;;;;26.02;10.30;;;;;;;8.69;100.00;101509.88;6258194;28;20121;-80
2023/03/20 07:36:57;;;;;;;26.13;9.80;;;;;;;8.74;100.00;101510.56;6255650;28;20046;-79
2023/03/20 07:39:59;;;;;;;21.98;8.75;;;;;;;8.62;100.00;101510.06;6250216;28;20045;-79
2023/03/20 07:43:00;;;;;;;25.92;9.60;;;;;;;8.72;100.00;101515.00;6250468;28;20073;-81
2023/03/20 07:46:04;;;;;;;16.65;7.38;;;;;;;8.59;100.00;101519.81;6249982;28;20049;-79
2023/03/20 07:49:05;;;;;;;24.25;7.68;;;;;;;8.68;100.00;101516.88;6253493;28;20049;-70
2023/03/20 07:52:07;;;;;;;17.33;6.78;;;;;;;8.81;100.00;101520.81;6255317;28;20056;-71
2023/03/20 07:55:08;;;;;;;13.40;5.78;;;;;;;8.90;100.00;101514.38;6259368;28;20106;-71
2023/03/20 07:58:10;;;;;;;13.68;5.90;;;;;;;8.94;100.00;101520.38;6279041;28;20124;-71
2023/03/20 08:01:12;;;;;;;14.23;6.25;;;;;;;8.95;100.00;101524.69;6279711;28;20060;-71
2023/03/20 08:04:18;;;;;;;14.90;5.47;;;;;;;8.88;100.00;101524.91;6258824;28;20052;-71
2023/03/20 08:07:19;;;;;;;17.63;6.50;;;;;;;8.92;100.00;101532.69;6256307;28;20456;-70
2023/03/20 08:10:21;;;;;;;12.10;5.07;;;;;;;8.88;100.00;101531.94;6270007;28;20050;-70
2023/03/20 08:13:22;;;;;;;13.82;5.72;;;;;;;8.93;100.00;101535.25;6269742;28;20182;-70
2023/03/20 08:16:25;;;;;;;16.67;6.75;;;;;;;8.85;100.00;101530.25;6279399;28;20049;-71
2023/03/20 08:19:27;;;;;;;14.35;7.22;;;;;;;8.91;100.00;101534.44;6279484;28;20049;-71
2023/03/20 08:22:28;;;;;;;11.35;5.32;;;;;;;8.92;100.00;101535.31;6262101;28;20057;-71
2023/03/20 08:25:32;;;;;;;11.90;4.97;;;;;;;8.89;100.00;101542.34;6258205;28;20362;-70
2023/03/20 08:28:33;;;;;;;15.55;6.03;;;;;;;8.94;100.00;101547.44;6278003;28;20045;-70
2023/03/20 08:31:36;;;;;;;12.70;6.00;;;;;;;8.94;100.00;101544.81;6265633;28;20556;-71
2023/03/20 08:34:37;;;;;;;10.75;5.13;;;;;;;8.82;100.00;101540.84;6254415;28;20056;-71
2023/03/20 08:37:38;;;;;;;13.95;5.82;;;;;;;8.73;100.00;101546.41;6253980;28;20056;-71
2023/03/20 08:40:40;;;;;;;12.38;6.63;;;;;;;8.66;100.00;101541.41;6254921;28;20072;-70
2023/03/20 08:43:42;;;;;;;17.38;6.03;;;;;;;8.65;100.00;101535.31;6261076;28;20069;-71
2023/03/20 08:46:45;;;;;;;15.85;6.07;;;;;;;8.74;100.00;101528.91;6263786;28;20070;-71
2023/03/20 08:49:46;;;;;;;12.43;5.47;;;;;;;8.72;100.00;101534.22;6260882;28;20092;-71
2023/03/20 08:52:48;;;;;;;17.48;7.30;;;;;;;8.73;100.00;101540.31;6265297;28;20061;-71
2023/03/20 08:55:49;;;;;;;13.77;6.00;;;;;;;8.76;100.00;101542.81;6266060;28;20045;-71
2023/03/20 08:58:52;;;;;;;16.13;7.15;;;;;;;8.74;100.00;101542.88;6255070;28;20129;-71
2023/03/20 09:01:55;;;;;;;19.08;6.20;;;;;;;8.62;100.00;101543.25;6266589;28;20049;-71
2023/03/20 09:04:56;;;;;;;12.63;6.25;;;;;;;8.63;100.00;101539.75;6273009;28;20132;-71
2023/03/20 09:07:58;;;;;;;20.10;6.82;;;;;;;8.53;100.00;101548.78;6278266;28;20048;-71
2023/03/20 09:10:59;;;;;;;20.90;7.07;;;;;;;8.47;100.00;101546.38;6278067;28;20067;-71
2023/03/20 09:14:00;;;;;;;17.05;6.88;;;;;;;8.52;100.00;101555.81;6271290;28;20048;-71
2023/03/20 09:17:03;;;;;;;15.40;6.40;;;;;;;8.48;100.00;101555.94;6273390;28;20045;-71
2023/03/20 09:20:05;;;;;;;12.75;5.65;;;;;;;8.53;100.00;101554.03;6277674;28;20048;-71
2023/03/20 09:23:07;;;;;;;12.68;5.78;;;;;;;8.51;100.00;101553.25;6277968;28;20076;-71
2023/03/20 09:26:08;;;;;;;14.30;5.40;;;;;;;8.51;100.00;101551.47;6276596;28;20060;-71
2023/03/20 09:29:10;;;;;;;17.20;5.57;;;;;;;8.62;100.00;101559.84;6277784;28;20049;-71
2023/03/20 09:32:13;;;;;;;11.73;4.93;;;;;;;8.76;100.00;101561.16;6272564;28;20052;-71
2023/03/20 09:35:15;;;;;;;11.85;5.05;;;;;;;8.68;100.00;101565.81;6265882;28;20120;-71
2023/03/20 09:38:17;;;;;;;16.73;5.38;;;;;;;8.61;100.00;101573.84;6268989;28;20045;-71
2023/03/20 09:41:21;;;;;;;10.98;5.10;;;;;;;8.61;100.00;101565.97;6273209;28;20045;-71
2023/03/20 09:44:39;;;;;;;14.73;4.75;;;;;;;8.70;100.00;101569.22;6264187;28;20045;-71
2023/03/20 09:47:51;;;;;;;11.55;4.72;;;;;;;8.84;100.00;101569.63;6252422;28;20327;-71
2023/03/20 09:50:58;;;;;;;14.45;5.10;;;;;;;8.86;100.00;101570.44;6252123;28;20064;-72
2023/03/20 09:54:02;;;;;;;12.07;4.60;;;;;;;9.02;100.00;101570.78;6252568;28;20057;-71
2023/03/20 09:57:04;;;;;;;11.82;4.93;;;;;;;9.07;100.00;101574.97;6253230;28;20045;-72
2023/03/20 10:00:11;;;;;;;12.85;5.28;;;;;;;9.09;100.00;101581.03;6252061;28;20041;-72
2023/03/20 10:03:19;;;;;;;15.07;5.70;;;;;;;9.00;100.00;101580.47;6252194;28;20057;-71
2023/03/20 10:06:20;;;;;;;17.67;5.38;;;;;;;8.93;100.00;101569.31;6252146;28;20054;-71
2023/03/20 10:09:24;;;;;;;9.60;4.68;;;;;;;9.03;100.00;101562.84;6252083;28;20139;-71
2023/03/20 10:12:41;;;;;;;13.20;4.85;;;;;;;9.11;100.00;101557.34;6251675;28;20049;-71
2023/03/20 10:15:48;;;;;;;13.38;5.25;;;;;;;9.19;100.00;101557.09;6251840;28;20057;-71
2023/03/20 10:19:01;;;;;;;9.05;3.92;;;;;;;9.27;100.00;101562.94;6251847;28;20046;-71
2023/03/20 10:22:11;;;;;;;15.10;4.45;;;;;;;9.27;100.00;101566.44;6251556;28;20349;-71
2023/03/20 10:25:23;;;;;;;6.72;4.15;;;;;;;9.34;100.00;101570.53;6260146;28;20045;-71
2023/03/20 10:28:32;;;;;;;7.40;3.42;;;;;;;9.33;100.00;101565.34;6275866;28;20172;-71
2023/03/20 10:31:42;;;;;;;5.88;2.58;;;;;;;9.36;100.00;101557.38;6276206;28;20049;-71
2023/03/20 10:34:55;;;;;;;6.57;3.17;;;;;;;9.40;100.00;101561.56;6276052;28;20357;-71
2023/03/20 10:38:08;;;;;;;5.68;3.03;;;;;;;9.46;100.00;101545.66;6276226;28;20048;-71
2023/03/20 10:41:14;;;;;;;8.85;2.90;;;;;;;9.61;100.00;101542.44;6275571;28;20416;-72
2023/03/20 10:44:22;;;;;;;8.15;2.83;;;;;;;9.59;100.00;101540.81;6276024;28;20338;-71
2023/03/20 10:47:26;;;;;;;11.07;3.38;;;;;;;9.66;100.00;101532.63;6275670;28;20048;-71
2023/03/20 10:50:35;;;;;;;6.93;2.95;;;;;;;9.63;100.00;101542.41;6275881;28;20049;-71
2023/03/20 10:53:46;;;;;;;6.00;3.40;;;;;;;9.71;100.00;101534.25;6275781;28;20056;-72
2023/03/20 10:56:50;;;;;;;10.05;3.00;;;;;;;9.68;100.00;101539.63;6274023;28;20045;-72
2023/03/20 10:59:54;;;;;;;7.75;3.42;;;;;;;9.88;100.00;101540.56;6271522;28;20044;-71
2023/03/20 11:02:55;;;;;;;6.35;2.83;;;;;;;9.83;100.00;101526.78;6264736;28;20041;-71
2023/03/20 11:06:02;;;;;;;5.00;2.55;;;;;;;9.82;100.00;101530.31;6262355;28;20045;-71
2023/03/20 11:09:12;;;;;;;9.32;2.63;;;;;;;9.82;100.00;101525.06;6260995;28;20041;-71
2023/03/20 11:12:17;;;;;;;6.72;2.75;;;;;;;9.85;100.00;101530.19;6260340;28;20041;-71
2023/03/20 11:15:25;;;;;;;10.63;3.03;;;;;;;9.88;100.00;101527.44;6257102;28;20432;-72
2023/03/20 11:18:26;;;;;;;6.40;2.50;;;;;;;9.99;100.00;101527.06;6263326;28;20049;-71
2023/03/20 11:21:31;;;;;;;6.28;2.40;;;;;;;10.21;100.00;101518.31;6265214;28;20053;-71
2023/03/20 11:24:36;;;;;;;6.65;3.70;;;;;;;10.27;100.00;101508.47;6264989;28;20052;-71
2023/03/20 11:27:38;;;;;;;5.10;2.53;;;;;;;10.20;100.00;101514.84;6250513;28;20062;-71
2023/03/20 11:30:40;;;;;;;5.25;2.05;;;;;;;10.15;100.00;101516.78;6251028;28;20050;-73
2023/03/20 11:33:44;;;;;;;3.70;2.00;;;;;;;10.04;100.00;101519.84;6267004;28;20049;-72
2023/03/20 11:36:55;;;;;;;9.38;2.67;;;;;;;10.11;100.00;101504.69;6274676;28;20559;-71
2023/03/20 11:39:58;;;;;;;5.65;2.28;;;;;;;10.16;100.00;101502.75;6275258;28;20048;-71
2023/03/20 11:43:06;;;;;;;9.80;2.30;;;;;;;10.16;100.00;101497.50;6274965;28;20183;-71
2023/03/20 11:46:11;;;;;;;2.95;1.90;;;;;;;10.11;100.00;101499.44;6274381;28;20052;-73
2023/03/20 11:49:21;;;;;;;6.00;2.20;;;;;;;10.15;100.00;101501.91;6266321;28;20365;-72
2023/03/20 11:52:24;;;;;;;;;;;;;;;10.11;100.00;101512.56;6275068;28;20063;-72
2023/03/20 11:55:28;;;;;;;5.68;2.13;;;;;;;10.11;100.00;101495.03;6268139;28;19931;-71
2023/03/20 11:58:29;;;;;;;2.22;1.55;;;;;;;10.13;100.00;101495.84;6249881;28;20045;-71
2023/03/20 12:01:39;;;;;;;6.15;2.40;;;;;;;10.30;100.00;101487.31;6249779;28;20056;-71
2023/03/20 12:04:42;;;;;;;6.30;1.95;;;;;;;10.51;100.00;101492.63;6249800;28;20068;-71
2023/03/20 12:07:49;;;;;;;3.08;2.05;;;;;;;10.40;100.00;101487.78;6251733;28;20048;-72
2023/03/20 12:10:55;;;;;;;4.03;2.20;;;;;;;10.45;100.00;101483.22;6257591;28;20052;-71
2023/03/20 12:14:01;;;;;;;4.50;2.08;;;;;;;10.29;100.00;101490.88;6261106;28;20472;-71
2023/03/20 12:17:25;;;;;;;3.67;2.20;;;;;;;10.21;100.00;101486.81;6260015;28;20071;-71
2023/03/20 12:20:32;;;;;;;5.18;2.30;;;;;;;10.11;100.00;101492.41;6260233;28;20124;-72
2023/03/20 12:23:40;;;;;;;3.80;1.92;;;;;;;10.18;100.00;101489.56;6263047;28;20179;-72
2023/03/20 12:26:50;;;;;;;7.63;2.25;;;;;;;10.31;100.00;101482.91;6267279;28;20049;-71
2023/03/20 12:29:58;;;;;;;4.47;2.15;;;;;;;10.26;100.00;101477.00;6268746;28;20361;-71
2023/03/20 12:33:04;;;;;;;4.68;2.22;;;;;;;10.29;100.00;101472.47;6274277;28;20045;-71
2023/03/20 12:36:13;;;;;;;2.60;2.00;;;;;;;10.20;100.00;101475.44;6273680;28;20426;-71
2023/03/20 12:39:20;;;;;;;5.43;2.47;;;;;;;10.26;100.00;101472.59;6270551;28;20045;-71
2023/03/20 12:42:35;;;;;;;5.00;2.42;;;;;;;10.37;100.00;101465.16;6278239;28;20084;-71
2023/03/20 12:45:40;;;;;;;4.05;1.85;;;;;;;10.49;100.00;101461.16;6278591;28;20357;-71
2023/03/20 12:48:52;;;;;;;4.60;2.25;;;;;;;10.48;100.00;101458.59;6275292;28;20053;-71
2023/03/20 12:52:03;;;;;;;6.03;2.22;;;;;;;10.53;100.00;101457.47;6267608;28;20060;-71
2023/03/20 12:55:35;;;;;;;6.90;2.13;;;;;;;10.67;100.00;101451.63;6254759;28;20042;-71
2023/03/20 12:58:42;;;;;;;5.15;2.60;;;;;;;10.69;100.00;101452.44;6253982;28;20049;-75
2023/03/20 13:01:51;;;;;;;9.70;2.92;;;;;;;10.70;100.00;101450.66;6253637;28;20053;-71
2023/03/20 13:05:04;;;;;;;4.95;2.65;;;;;;;10.68;100.00;101447.25;6261158;28;20103;-71
2023/03/20 13:08:46;;;;;;;9.65;2.90;;;;;;;10.77;100.00;101442.47;6265946;28;20147;-72
2023/03/20 13:11:55;;;;;;;6.65;2.13;;;;;;;10.77;100.00;101445.09;6219858;28;20042;-72
2023/03/20 13:15:02;;;;;;;5.00;2.58;;;;;;;10.74;100.00;101439.09;6256045;28;20048;-71
2023/03/20 13:18:09;;;;;;;11.50;2.13;;;;;;;10.80;100.00;101449.34;6254446;28;20048;-71
2023/03/20 13:21:17;;;;;;;7.65;1.77;;;;;;;10.81;100.00;101438.78;6263452;28;20046;-72
2023/03/20 13:24:30;;;;;;;5.15;1.77;;;;;;;10.73;100.00;101440.88;6263753;28;20130;-71
2023/03/20 13:27:39;;;;;;;2.80;1.60;;;;;;;10.70;100.00;101437.50;6266591;28;20060;-71
2023/03/20 13:30:46;;;;;;;6.07;1.90;;;;;;;10.65;100.00;101443.81;6266269;28;20053;-71
2023/03/20 13:33:54;;;;;;;3.85;1.90;;;;;;;10.62;100.00;101438.69;6267417;28;20056;-71
2023/03/20 13:37:07;;;;;;;5.43;2.07;;;;;;;10.79;100.00;101440.59;6262221;28;20055;-71
2023/03/20 13:40:16;;;;;;;2.03;1.52;;;;;;;10.80;100.00;101441.44;6263132;28;20362;-71
2023/03/20 13:43:25;;;;;;;5.32;2.08;;;;;;;10.73;100.00;101440.03;6264470;28;20456;-71
2023/03/20 13:46:33;;;;;;;2.58;1.85;;;;;;;10.59;100.00;101432.72;6259900;28;20056;-71
2023/03/20 13:49:37;;;;;;;2.47;1.83;;;;;;;10.61;100.00;101430.88;6262874;28;20129;-71
2023/03/20 13:52:45;;;;;;;6.68;1.98;;;;;;;10.55;100.00;101432.00;6264267;28;20128;-71
2023/03/20 13:55:54;;;;;;;3.17;1.77;;;;;;;10.65;100.00;101437.72;6261521;28;20053;-71
2023/03/20 13:59:14;;;;;;;3.78;1.75;;;;;;;10.62;100.00;101430.78;6261093;28;20048;-71
2023/03/20 14:02:29;;;;;;;3.35;1.98;;;;;;;10.71;100.00;101440.06;6257355;28;20041;-71
2023/03/20 14:05:36;;;;;;;4.28;1.98;;;;;;;10.57;100.00;101437.19;6265675;28;20061;-71
2023/03/20 14:08:38;;;;;;;4.03;1.55;;;;;;;10.57;100.00;101435.41;6254874;28;20057;-71
2023/03/20 14:11:39;;;;;;;5.93;1.88;;;;;;;10.59;100.00;101435.34;6261910;28;20043;-71